createdAt,value
2022-08-11T00:00:17.306Z,3.83
2022-08-11T00:02:52.973Z,3.77
2022-08-11T00:05:24.890Z,4.20
2022-08-11T00:07:58.545Z,4.37
2022-08-11T00:10:30.655Z,4.33
2022-08-11T00:13:07.530Z,3.93
2022-08-11T00:15:42.940Z,4.13
2022-08-11T00:18:15.704Z,4.60
2022-08-11T00:20:48.227Z,4.70
2022-08-11T00:23:20.707Z,3.97
2022-08-11T00:25:53.393Z,4.17
2022-08-11T00:28:33.921Z,5.27
2022-08-11T00:31:08.584Z,4.40
2022-08-11T00:33:45.188Z,4.80
2022-08-11T00:36:25.369Z,4.23
2022-08-11T00:39:05.288Z,4.63
2022-08-11T00:41:37.197Z,4.60
2022-08-11T00:44:27.550Z,4.40
2022-08-11T00:47:31.588Z,4.20
2022-08-11T00:50:09.298Z,4.67
2022-08-11T00:53:03.292Z,4.23
2022-08-11T00:56:12.373Z,5.00
2022-08-11T00:59:32.212Z,5.43
2022-08-11T01:02:30.675Z,4.53
2022-08-11T01:05:14.972Z,4.80
2022-08-11T01:08:05.503Z,5.20
2022-08-11T01:11:15.135Z,4.50
2022-08-11T01:14:34.246Z,4.33
2022-08-11T01:17:51.153Z,4.40
2022-08-11T01:20:45.045Z,4.63
2022-08-11T01:23:41.711Z,4.70
2022-08-11T01:26:43.912Z,4.20
2022-08-11T01:29:24.468Z,4.60
2022-08-11T01:32:29.694Z,4.73
2022-08-11T01:35:07.459Z,3.80
2022-08-11T01:38:06.841Z,4.43
2022-08-11T01:40:55.566Z,4.17
2022-08-11T01:44:22.484Z,4.40
2022-08-11T01:47:06.703Z,4.37
2022-08-11T01:50:08.646Z,5.20
2022-08-11T01:53:20.590Z,3.83
2022-08-11T01:56:27.277Z,4.27
2022-08-11T01:59:34.332Z,5.10
2022-08-11T02:02:06.026Z,4.20
2022-08-11T02:04:44.042Z,5.00
2022-08-11T02:07:47.096Z,5.17
2022-08-11T02:10:50.770Z,5.20
2022-08-11T02:13:53.883Z,4.22
2022-08-11T02:16:37.686Z,5.60
2022-08-11T02:19:56.609Z,4.83
2022-08-11T02:24:00.527Z,5.07
2022-08-11T02:26:33.167Z,5.43
2022-08-11T02:29:25.180Z,5.60
2022-08-11T02:32:30.727Z,4.73
2022-08-11T02:35:29.307Z,4.83
2022-08-11T02:38:25.400Z,5.87
2022-08-11T02:41:30.537Z,5.00
2022-08-11T02:44:25.975Z,5.37
2022-08-11T02:47:00.415Z,4.90
2022-08-11T02:49:59.750Z,5.30
2022-08-11T02:52:54.158Z,4.80
2022-08-11T02:56:10.878Z,4.43
2022-08-11T02:59:27.353Z,4.83
2022-08-11T03:02:10.039Z,6.07
2022-08-11T03:04:55.812Z,4.53
2022-08-11T03:07:52.783Z,5.83
2022-08-11T03:11:21.095Z,4.83
2022-08-11T03:14:26.329Z,4.80
2022-08-11T03:17:30.062Z,5.40
2022-08-11T03:20:13.759Z,4.70
2022-08-11T03:22:51.600Z,4.90
2022-08-11T03:25:44.991Z,5.50
2022-08-11T03:28:36.735Z,5.37
2022-08-11T03:31:20.055Z,6.07
2022-08-11T03:34:06.611Z,6.13
2022-08-11T03:37:16.806Z,7.30
2022-08-11T03:40:01.681Z,5.30
2022-08-11T03:42:57.850Z,5.73
2022-08-11T03:45:57.342Z,5.43
2022-08-11T03:49:05.711Z,6.30
2022-08-11T03:52:05.359Z,4.90
2022-08-11T03:55:07.467Z,5.87
2022-08-11T03:57:47.942Z,5.30
2022-08-11T04:00:39.934Z,5.77
2022-08-11T04:03:39.250Z,6.43
2022-08-11T04:06:38.866Z,5.80
2022-08-11T04:09:56.998Z,5.80
2022-08-11T04:12:39.468Z,6.00
2022-08-11T04:15:49.254Z,5.70
2022-08-11T04:18:39.268Z,5.00
2022-08-11T04:21:20.329Z,5.23
2022-08-11T04:24:39.079Z,5.17
2022-08-11T04:27:47.717Z,5.25
2022-08-11T04:30:54.108Z,5.70
2022-08-11T04:33:55.413Z,5.60
2022-08-11T04:37:06.425Z,6.00
2022-08-11T04:40:13.237Z,6.47
2022-08-11T04:43:22.071Z,6.30
2022-08-11T04:45:56.756Z,6.20
2022-08-11T04:49:33.709Z,5.80
2022-08-11T04:52:38.300Z,5.83
2022-08-11T04:56:00.423Z,6.47
2022-08-11T04:59:25.050Z,6.17
2022-08-11T05:02:30.331Z,6.10
2022-08-11T05:05:20.572Z,5.73
2022-08-11T05:08:24.184Z,6.03
2022-08-11T05:11:22.730Z,5.50
2022-08-11T05:14:31.432Z,6.50
2022-08-11T05:17:40.730Z,5.93
2022-08-11T05:20:31.762Z,5.67
2022-08-11T05:23:25.197Z,5.70
2022-08-11T05:26:46.877Z,6.03
2022-08-11T05:29:57.403Z,6.60
2022-08-11T05:33:14.458Z,5.00
2022-08-11T05:36:02.576Z,6.63
2022-08-11T05:38:55.584Z,6.80
2022-08-11T05:41:49.540Z,5.50
2022-08-11T05:44:40.482Z,5.10
2022-08-11T05:47:39.456Z,6.23
2022-08-11T05:50:33.123Z,5.97
2022-08-11T05:53:29.408Z,5.73
2022-08-11T05:56:21.177Z,6.10
2022-08-11T05:58:54.871Z,4.90
2022-08-11T06:01:33.071Z,6.50
2022-08-11T06:04:16.244Z,5.90
2022-08-11T06:06:57.155Z,5.83
2022-08-11T06:09:47.380Z,5.53
2022-08-11T06:12:24.729Z,6.30
2022-08-11T06:15:01.869Z,5.07
2022-08-11T06:17:38.523Z,5.30
2022-08-11T06:20:12.964Z,5.23
2022-08-11T06:22:52.818Z,5.97
2022-08-11T06:25:35.675Z,6.30
2022-08-11T06:28:08.396Z,6.00
2022-08-11T06:30:43.094Z,5.57
2022-08-11T06:33:48.182Z,5.60
2022-08-11T06:36:35.719Z,5.77
2022-08-11T06:39:27.497Z,5.63
2022-08-11T06:42:08.705Z,6.50
2022-08-11T06:44:50.227Z,5.67
2022-08-11T06:47:22.526Z,5.60
2022-08-11T06:50:17.918Z,5.97
2022-08-11T06:52:53.756Z,5.60
2022-08-11T06:55:55.501Z,6.83
2022-08-11T06:58:55.875Z,6.10
2022-08-11T07:02:03.043Z,5.80
2022-08-11T07:05:04.220Z,5.47
2022-08-11T07:08:38.799Z,6.20
2022-08-11T07:12:07.390Z,5.37
2022-08-11T07:15:05.087Z,6.20
2022-08-11T07:17:50.027Z,5.60
2022-08-11T07:20:40.349Z,5.40
2022-08-11T07:23:31.283Z,6.17
2022-08-11T07:26:23.247Z,6.67
2022-08-11T07:28:56.453Z,6.47
2022-08-11T07:31:37.284Z,6.00
2022-08-11T07:34:28.120Z,5.60
2022-08-11T07:37:08.672Z,5.87
2022-08-11T07:39:44.318Z,5.93
2022-08-11T07:42:27.143Z,5.87
2022-08-11T07:45:18.887Z,6.07
2022-08-11T07:48:11.388Z,6.07
2022-08-11T07:51:05.803Z,5.73
2022-08-11T07:53:57.880Z,5.83
2022-08-11T07:56:55.431Z,6.00
2022-08-11T08:00:00.950Z,6.70
2022-08-11T08:02:54.830Z,5.57
2022-08-11T08:05:45.539Z,6.07
2022-08-11T08:08:35.778Z,5.67
2022-08-11T08:11:27.474Z,5.40
2022-08-11T08:14:18.691Z,5.73
2022-08-11T08:17:09.639Z,5.20
2022-08-11T08:19:44.436Z,6.17
2022-08-11T08:22:38.671Z,5.00
2022-08-11T08:25:11.375Z,6.00
2022-08-11T08:27:45.664Z,5.90
2022-08-11T08:30:38.026Z,4.90
2022-08-11T08:33:12.045Z,5.40
2022-08-11T08:35:55.713Z,6.10
2022-08-11T08:38:27.803Z,4.83
2022-08-11T08:41:00.454Z,5.90
2022-08-11T08:43:47.587Z,5.67
2022-08-11T08:46:29.216Z,5.13
2022-08-11T08:49:03.155Z,5.00
2022-08-11T08:52:01.854Z,5.18
2022-08-11T08:54:37.105Z,5.90
2022-08-11T08:57:11.973Z,5.07
2022-08-11T08:59:49.505Z,5.23
2022-08-11T09:02:33.960Z,4.90
2022-08-11T09:05:09.927Z,4.70
2022-08-11T09:07:43.311Z,5.20
2022-08-11T09:10:18.883Z,4.97
2022-08-11T09:12:51.559Z,4.97
2022-08-11T09:15:24.326Z,4.68
2022-08-11T09:18:05.946Z,5.28
2022-08-11T09:20:39.552Z,4.15
2022-08-11T09:24:08.890Z,4.78
2022-08-11T09:26:41.158Z,4.88
2022-08-11T09:29:13.880Z,4.10
2022-08-11T09:31:46.591Z,4.60
2022-08-11T09:34:19.010Z,4.13
2022-08-11T09:37:09.882Z,3.95
2022-08-11T09:40:01.280Z,4.35
2022-08-11T09:42:52.161Z,4.53
2022-08-11T09:45:24.286Z,4.47
2022-08-11T09:47:57.104Z,4.53
2022-08-11T09:50:29.016Z,3.60
2022-08-11T09:53:36.328Z,3.53
2022-08-11T09:55:58.627Z,3.72
2022-08-11T09:58:41.743Z,3.75
2022-08-11T10:01:27.430Z,3.63
2022-08-11T10:04:05.704Z,4.07
2022-08-11T10:06:58.486Z,3.92
2022-08-11T10:09:36.239Z,4.30
2022-08-11T10:12:24.613Z,3.63
2022-08-11T10:15:22.042Z,4.07
2022-08-11T10:18:27.676Z,4.40
2022-08-11T10:21:02.775Z,4.65
2022-08-11T10:24:00.897Z,4.68
2022-08-11T10:27:00.316Z,4.55
2022-08-11T10:29:59.757Z,4.38
2022-08-11T10:32:58.550Z,3.97
2022-08-11T10:35:33.100Z,4.15
2022-08-11T10:38:07.949Z,3.85
2022-08-11T10:40:46.220Z,3.55
2022-08-11T10:44:02.107Z,3.88
2022-08-11T10:46:30.167Z,3.55
2022-08-11T10:49:02.753Z,3.50
2022-08-11T10:51:53.733Z,3.63
2022-08-11T10:54:44.937Z,4.25
2022-08-11T10:57:37.467Z,3.13
2022-08-11T11:00:15.147Z,4.10
2022-08-11T11:03:16.780Z,3.50
2022-08-11T11:06:27.694Z,3.75
2022-08-11T11:08:52.869Z,3.38
2022-08-11T11:11:46.173Z,3.40
2022-08-11T11:14:46.379Z,3.70
2022-08-11T11:17:57.186Z,3.47
2022-08-11T11:20:46.562Z,2.83
2022-08-11T11:23:26.519Z,3.83
2022-08-11T11:26:11.033Z,3.08
2022-08-11T11:28:51.860Z,2.80
2022-08-11T11:31:26.603Z,3.83
2022-08-11T11:34:13.197Z,3.60
2022-08-11T11:36:55.145Z,3.65
2022-08-11T11:39:31.110Z,3.15
2022-08-11T11:42:06.149Z,3.90
2022-08-11T11:44:39.302Z,3.72
2022-08-11T11:47:12.916Z,3.38
2022-08-11T11:49:45.664Z,4.63
2022-08-11T11:52:21.059Z,3.60
2022-08-11T11:54:56.468Z,3.70
2022-08-11T11:57:59.285Z,3.77
2022-08-11T12:00:53.655Z,4.10
2022-08-11T12:03:26.680Z,3.63
2022-08-11T12:06:00.086Z,3.53
2022-08-11T12:08:32.635Z,4.07
2022-08-11T12:11:27.317Z,3.47
2022-08-11T12:14:04.740Z,4.07
2022-08-11T12:16:45.716Z,2.97
2022-08-11T12:19:21.448Z,4.10
2022-08-11T12:22:14.674Z,3.57
2022-08-11T12:25:05.689Z,3.53
2022-08-11T12:27:39.148Z,3.80
2022-08-11T12:30:12.734Z,3.90
2022-08-11T12:32:45.027Z,3.20
2022-08-11T12:35:17.240Z,3.57
2022-08-11T12:38:02.578Z,4.13
2022-08-11T12:41:15.806Z,3.83
2022-08-11T12:44:08.122Z,3.40
2022-08-11T12:46:44.577Z,3.73
2022-08-11T12:49:44.871Z,3.30
2022-08-11T12:52:25.430Z,3.83
2022-08-11T12:55:14.100Z,4.30
2022-08-11T12:58:06.194Z,3.40
2022-08-11T13:00:56.576Z,3.27
2022-08-11T13:03:52.365Z,3.93
2022-08-11T13:06:29.544Z,3.77
2022-08-11T13:09:01.704Z,4.17
2022-08-11T13:11:56.601Z,3.70
2022-08-11T13:14:33.040Z,3.97
2022-08-11T13:17:43.638Z,3.53
2022-08-11T13:20:20.137Z,3.93
2022-08-11T13:22:54.567Z,3.73
2022-08-11T13:25:29.702Z,3.87
2022-08-11T13:28:04.870Z,3.57
2022-08-11T13:31:12.368Z,4.03
2022-08-11T13:33:51.672Z,3.30
2022-08-11T13:36:28.418Z,3.93
2022-08-11T13:39:02.431Z,3.83
2022-08-11T13:41:40.701Z,3.57
2022-08-11T13:44:18.190Z,3.37
2022-08-11T13:46:53.394Z,4.00
2022-08-11T13:49:25.988Z,3.80
2022-08-11T13:51:59.024Z,3.70
2022-08-11T13:54:34.940Z,4.10
2022-08-11T13:57:13.476Z,3.90
2022-08-11T14:00:22.540Z,3.60
2022-08-11T14:02:58.257Z,3.77
2022-08-11T14:05:37.980Z,3.80
2022-08-11T14:08:37.017Z,3.53
2022-08-11T14:12:23.501Z,3.63
2022-08-11T14:14:23.516Z,3.73
2022-08-11T14:16:57.524Z,3.70
2022-08-11T14:19:30.799Z,3.97
2022-08-11T14:22:08.125Z,3.27
2022-08-11T14:24:42.842Z,3.20
2022-08-11T14:28:31.934Z,3.63
2022-08-11T14:30:27.853Z,4.00
2022-08-11T14:33:00.006Z,3.40
2022-08-11T14:35:31.825Z,3.30
2022-08-11T14:38:05.397Z,3.50
2022-08-11T14:40:56.499Z,4.13
2022-08-11T14:44:13.339Z,4.10
2022-08-11T14:46:59.452Z,3.30
2022-08-11T14:49:36.170Z,4.90
2022-08-11T14:52:30.530Z,3.80
2022-08-11T14:55:21.760Z,3.87
2022-08-11T14:57:57.106Z,3.87
2022-08-11T15:00:30.086Z,4.10
2022-08-11T15:03:10.373Z,4.17
2022-08-11T15:06:02.689Z,4.90
2022-08-11T15:08:56.490Z,5.47
2022-08-11T15:11:50.667Z,3.87
2022-08-11T15:14:41.496Z,3.97
2022-08-11T15:17:14.398Z,4.20
2022-08-11T15:20:05.463Z,3.40
2022-08-11T15:23:09.741Z,4.00
2022-08-11T15:25:53.115Z,4.50
2022-08-11T15:28:45.796Z,3.80
2022-08-11T15:31:37.411Z,3.60
2022-08-11T15:34:31.930Z,4.00
2022-08-11T15:37:28.052Z,4.03
2022-08-11T15:40:32.981Z,3.60
2022-08-11T15:43:30.359Z,3.43
2022-08-11T15:46:30.330Z,3.70
2022-08-11T15:49:08.623Z,3.40
2022-08-11T15:51:46.191Z,3.60
2022-08-11T15:54:23.139Z,3.63
2022-08-11T15:56:57.451Z,3.67
2022-08-11T15:59:52.260Z,3.43
2022-08-11T16:02:45.302Z,3.60
2022-08-11T16:05:45.211Z,3.77
2022-08-11T16:08:10.483Z,3.70
2022-08-11T16:10:46.627Z,3.30
2022-08-11T16:13:22.515Z,3.90
2022-08-11T16:16:14.791Z,3.60
2022-08-11T16:18:53.906Z,4.10
2022-08-11T16:21:35.271Z,3.60
2022-08-11T16:26:30.410Z,4.10
2022-08-11T16:27:13.501Z,5.07
2022-08-11T16:29:47.872Z,3.80
2022-08-11T16:32:23.336Z,3.63
2022-08-11T16:35:22.371Z,3.73
2022-08-11T16:38:13.449Z,3.90
2022-08-11T16:40:47.350Z,3.73
2022-08-11T16:43:40.620Z,3.30
2022-08-11T16:46:34.719Z,3.77
2022-08-11T16:49:10.626Z,3.93
2022-08-11T16:51:42.575Z,3.40
2022-08-11T16:54:14.863Z,3.50
2022-08-11T16:56:57.272Z,4.30
2022-08-11T16:59:38.332Z,3.70
2022-08-11T17:02:34.928Z,3.67
2022-08-11T17:05:38.328Z,3.60
2022-08-11T17:08:57.098Z,3.57
2022-08-11T17:11:59.197Z,3.90
2022-08-11T17:14:40.456Z,3.40
2022-08-11T17:17:17.028Z,3.70
2022-08-11T17:20:40.392Z,3.60
2022-08-11T17:23:03.855Z,4.00
2022-08-11T17:25:59.665Z,3.43
2022-08-11T17:28:29.225Z,3.97
2022-08-11T17:31:22.308Z,3.83
2022-08-11T17:34:15.360Z,4.10
2022-08-11T17:36:49.060Z,3.90
2022-08-11T17:39:24.126Z,3.50
2022-08-11T17:42:14.791Z,4.33
2022-08-11T17:45:06.903Z,4.28
2022-08-11T17:47:58.785Z,3.30
2022-08-11T17:50:32.230Z,4.00
2022-08-11T17:53:23.614Z,4.50
2022-08-11T17:56:34.053Z,3.80
2022-08-11T17:59:32.403Z,3.90
2022-08-11T18:02:34.416Z,4.20
2022-08-11T18:05:12.784Z,4.13
2022-08-11T18:08:05.423Z,4.07
2022-08-11T18:10:57.343Z,3.80
2022-08-11T18:13:50.330Z,3.60
2022-08-11T18:16:41.580Z,3.83
2022-08-11T18:19:32.576Z,3.90
2022-08-11T18:22:31.592Z,3.90
2022-08-11T18:25:28.453Z,3.23
2022-08-11T18:28:19.773Z,3.97
2022-08-11T18:31:13.150Z,4.37
2022-08-11T18:34:11.778Z,4.60
2022-08-11T18:37:09.339Z,3.60
2022-08-11T18:40:17.277Z,4.30
2022-08-11T18:43:09.156Z,3.70
2022-08-11T18:46:07.196Z,4.00
2022-08-11T18:49:06.134Z,3.90
2022-08-11T18:51:58.684Z,3.80
2022-08-11T18:54:53.185Z,3.80
2022-08-11T18:57:50.093Z,3.73
2022-08-11T19:00:46.354Z,4.33
2022-08-11T19:03:48.507Z,4.10
2022-08-11T19:06:42.638Z,4.53
2022-08-11T19:09:36.834Z,3.87
2022-08-11T19:12:29.980Z,3.77
2022-08-11T19:15:23.610Z,3.23
2022-08-11T19:18:15.078Z,3.80
2022-08-11T19:21:06.528Z,4.50
2022-08-11T19:24:02.470Z,4.20
2022-08-11T19:26:53.712Z,6.23
2022-08-11T19:30:11.071Z,3.77
2022-08-11T19:32:58.488Z,3.73
2022-08-11T19:35:50.406Z,3.63
2022-08-11T19:38:40.875Z,4.27
2022-08-11T19:41:56.381Z,3.67
2022-08-11T19:44:44.067Z,4.00
2022-08-11T19:47:38.747Z,3.60
2022-08-11T19:50:31.311Z,3.87
2022-08-11T19:53:24.667Z,3.27
2022-08-11T19:56:15.634Z,4.03
2022-08-11T19:59:07.191Z,3.60
2022-08-11T20:02:12.821Z,3.27
2022-08-11T20:05:04.868Z,3.30
2022-08-11T20:07:55.755Z,3.30
2022-08-11T20:10:47.916Z,3.87
2022-08-11T20:13:42.670Z,3.43
2022-08-11T20:16:37.023Z,3.37
2022-08-11T20:19:54.962Z,4.27
2022-08-11T20:22:39.066Z,3.80
2022-08-11T20:25:31.192Z,4.07
2022-08-11T20:28:23.978Z,4.17
2022-08-11T20:31:14.947Z,4.20
2022-08-11T20:34:05.616Z,3.90
2022-08-11T20:36:57.829Z,3.80
2022-08-11T20:39:50.299Z,3.17
2022-08-11T20:42:42.023Z,3.90
2022-08-11T20:45:33.697Z,3.87
2022-08-11T20:48:26.191Z,3.37
2022-08-11T20:51:18.118Z,3.80
2022-08-11T20:54:09.813Z,3.83
2022-08-11T20:57:01.937Z,4.23
2022-08-11T20:59:56.859Z,4.00
2022-08-11T21:02:50.078Z,3.73
2022-08-11T21:06:10.532Z,3.50
2022-08-11T21:08:54.957Z,4.03
2022-08-11T21:11:46.518Z,4.17
2022-08-11T21:14:40.762Z,4.37
2022-08-11T21:18:00.667Z,4.03
2022-08-11T21:20:50.151Z,3.97
2022-08-11T21:23:42.450Z,4.53
2022-08-11T21:26:35.891Z,3.80
2022-08-11T21:29:28.852Z,4.10
2022-08-11T21:32:20.444Z,4.10
2022-08-11T21:35:12.510Z,3.80
2022-08-11T21:38:07.132Z,4.60
2022-08-11T21:41:00.816Z,4.27
2022-08-11T21:43:51.699Z,4.60
2022-08-11T21:46:43.234Z,4.57
2022-08-11T21:49:34.715Z,4.07
2022-08-11T21:52:25.189Z,3.63
2022-08-11T21:55:16.638Z,4.30
2022-08-11T21:58:07.688Z,4.33
2022-08-11T22:00:58.589Z,4.03
2022-08-11T22:03:49.835Z,4.03
2022-08-11T22:06:41.454Z,4.50
2022-08-11T22:09:31.926Z,4.33
2022-08-11T22:12:41.266Z,4.57
2022-08-11T22:15:33.651Z,4.83
2022-08-11T22:18:24.013Z,4.17
2022-08-11T22:21:56.229Z,4.60
2022-08-11T22:24:26.035Z,4.60
2022-08-11T22:27:20.732Z,4.40
2022-08-11T22:30:11.223Z,4.73
2022-08-11T22:33:02.687Z,5.00
2022-08-11T22:35:54.058Z,4.57
2022-08-11T22:38:45.080Z,4.40
2022-08-11T22:41:35.797Z,4.17
2022-08-11T22:44:27.180Z,4.13
2022-08-11T22:47:19.326Z,4.27
2022-08-11T22:50:14.359Z,4.73
2022-08-11T22:53:06.784Z,4.00
2022-08-11T22:55:59.553Z,4.20
2022-08-11T22:58:50.553Z,4.30
2022-08-11T23:01:54.770Z,4.03
2022-08-11T23:04:53.017Z,4.63
2022-08-11T23:07:50.893Z,3.90
2022-08-11T23:10:43.250Z,4.77
2022-08-11T23:13:34.295Z,4.40
2022-08-11T23:16:25.471Z,4.70
2022-08-11T23:20:06.600Z,4.10
2022-08-11T23:22:37.064Z,5.30
2022-08-11T23:25:38.233Z,4.93
2022-08-11T23:28:31.817Z,4.37
2022-08-11T23:31:22.788Z,4.40
2022-08-11T23:35:02.844Z,4.50
2022-08-11T23:37:26.227Z,4.60
2022-08-11T23:40:16.614Z,4.37
2022-08-11T23:43:10.502Z,4.90
2022-08-11T23:46:00.907Z,4.00
2022-08-11T23:48:52.345Z,4.63
2022-08-11T23:51:43.886Z,4.27
2022-08-11T23:54:37.391Z,4.80
2022-08-11T23:57:28.308Z,4.67
